sensor_id;sensor_type;location;lat;lon;timestamp;P1;durP1;ratioP1;P2;durP2;ratioP2
4794;SDS011;2411;47.060;15.064;2023-05-10T00:00:17;5.60;;;4.50;;
4794;SDS011;2411;47.060;15.064;2023-05-10T00:03:05;5.30;;;4.87;;
4794;SDS011;2411;47.060;15.064;2023-05-10T00:05:52;6.50;;;5.90;;
4794;SDS011;2411;47.060;15.064;2023-05-10T00:08:40;5.20;;;4.80;;
4794;SDS011;2411;47.060;15.064;2023-05-10T00:11:27;5.47;;;4.97;;
4794;SDS011;2411;47.060;15.064;2023-05-10T00:14:15;5.40;;;5.00;;
4794;SDS011;2411;47.060;15.064;2023-05-10T00:17:02;5.30;;;4.80;;
4794;SDS011;2411;47.060;15.064;2023-05-10T00:19:49;16.20;;;5.20;;
4794;SDS011;2411;47.060;15.064;2023-05-10T00:22:37;4.90;;;4.50;;
4794;SDS011;2411;47.060;15.064;2023-05-10T00:25:24;5.70;;;5.20;;
4794;SDS011;2411;47.060;15.064;2023-05-10T00:28:12;7.90;;;5.00;;
4794;SDS011;2411;47.060;15.064;2023-05-10T00:30:59;5.67;;;5.17;;
4794;SDS011;2411;47.060;15.064;2023-05-10T00:33:46;5.20;;;4.80;;
4794;SDS011;2411;47.060;15.064;2023-05-10T00:36:34;6.00;;;5.37;;
4794;SDS011;2411;47.060;15.064;2023-05-10T00:39:21;4.43;;;4.03;;
4794;SDS011;2411;47.060;15.064;2023-05-10T00:42:09;4.70;;;4.30;;
4794;SDS011;2411;47.060;15.064;2023-05-10T00:44:56;5.83;;;5.33;;
4794;SDS011;2411;47.060;15.064;2023-05-10T00:47:44;6.13;;;3.73;;
4794;SDS011;2411;47.060;15.064;2023-05-10T00:50:32;8.50;;;4.93;;
4794;SDS011;2411;47.060;15.064;2023-05-10T00:53:20;5.60;;;5.07;;
4794;SDS011;2411;47.060;15.064;2023-05-10T00:56:08;6.50;;;4.80;;
4794;SDS011;2411;47.060;15.064;2023-05-10T00:58:56;63.57;;;6.37;;
4794;SDS011;2411;47.060;15.064;2023-05-10T01:01:44;104.70;;;8.13;;
4794;SDS011;2411;47.060;15.064;2023-05-10T01:04:32;43.77;;;6.60;;
4794;SDS011;2411;47.060;15.064;2023-05-10T01:07:20;24.77;;;6.97;;
4794;SDS011;2411;47.060;15.064;2023-05-10T01:10:07;8.73;;;5.33;;
4794;SDS011;2411;47.060;15.064;2023-05-10T01:12:55;5.73;;;5.13;;
4794;SDS011;2411;47.060;15.064;2023-05-10T01:15:43;7.00;;;5.50;;
4794;SDS011;2411;47.060;15.064;2023-05-10T01:18:35;10.67;;;5.70;;
4794;SDS011;2411;47.060;15.064;2023-05-10T01:25:02;244.93;;;14.10;;
4794;SDS011;2411;47.060;15.064;2023-05-10T01:34:16;121.73;;;7.13;;
4794;SDS011;2411;47.060;15.064;2023-05-10T01:37:08;8.90;;;5.17;;
4794;SDS011;2411;47.060;15.064;2023-05-10T01:43:01;4.27;;;3.87;;
4794;SDS011;2411;47.060;15.064;2023-05-10T01:45:54;5.40;;;4.97;;
4794;SDS011;2411;47.060;15.064;2023-05-10T01:48:59;4.73;;;4.27;;
4794;SDS011;2411;47.060;15.064;2023-05-10T01:51:50;5.00;;;4.50;;
4794;SDS011;2411;47.060;15.064;2023-05-10T01:54:42;4.70;;;4.33;;
4794;SDS011;2411;47.060;15.064;2023-05-10T01:57:36;5.90;;;4.30;;
4794;SDS011;2411;47.060;15.064;2023-05-10T02:00:26;4.73;;;4.40;;
4794;SDS011;2411;47.060;15.064;2023-05-10T02:03:15;5.30;;;4.90;;
4794;SDS011;2411;47.060;15.064;2023-05-10T02:06:04;5.00;;;4.50;;
4794;SDS011;2411;47.060;15.064;2023-05-10T02:08:53;5.00;;;4.50;;
4794;SDS011;2411;47.060;15.064;2023-05-10T02:11:42;8.37;;;4.70;;
4794;SDS011;2411;47.060;15.064;2023-05-10T02:14:31;4.80;;;4.50;;
4794;SDS011;2411;47.060;15.064;2023-05-10T02:17:21;5.87;;;3.57;;
4794;SDS011;2411;47.060;15.064;2023-05-10T02:20:10;5.23;;;4.73;;
4794;SDS011;2411;47.060;15.064;2023-05-10T02:22:59;4.47;;;4.17;;
4794;SDS011;2411;47.060;15.064;2023-05-10T02:25:50;4.57;;;4.17;;
4794;SDS011;2411;47.060;15.064;2023-05-10T02:28:40;4.60;;;4.20;;
4794;SDS011;2411;47.060;15.064;2023-05-10T02:31:30;6.00;;;4.87;;
4794;SDS011;2411;47.060;15.064;2023-05-10T02:34:21;4.37;;;4.07;;
4794;SDS011;2411;47.060;15.064;2023-05-10T02:37:09;8.73;;;4.63;;
4794;SDS011;2411;47.060;15.064;2023-05-10T02:39:58;6.50;;;4.70;;
4794;SDS011;2411;47.060;15.064;2023-05-10T02:42:47;4.87;;;4.47;;
4794;SDS011;2411;47.060;15.064;2023-05-10T02:45:37;33.10;;;5.30;;
4794;SDS011;2411;47.060;15.064;2023-05-10T02:48:26;8.13;;;4.63;;
4794;SDS011;2411;47.060;15.064;2023-05-10T02:51:13;164.27;;;11.47;;
4794;SDS011;2411;47.060;15.064;2023-05-10T02:54:07;324.83;;;17.50;;
4794;SDS011;2411;47.060;15.064;2023-05-10T02:57:00;345.00;;;16.23;;
4794;SDS011;2411;47.060;15.064;2023-05-10T02:59:50;192.50;;;9.00;;
4794;SDS011;2411;47.060;15.064;2023-05-10T03:02:38;62.90;;;5.77;;
4794;SDS011;2411;47.060;15.064;2023-05-10T03:05:25;6.03;;;4.00;;
4794;SDS011;2411;47.060;15.064;2023-05-10T03:08:12;3.53;;;3.33;;
4794;SDS011;2411;47.060;15.064;2023-05-10T03:17:30;4.30;;;4.00;;
4794;SDS011;2411;47.060;15.064;2023-05-10T03:20:44;5.10;;;4.70;;
4794;SDS011;2411;47.060;15.064;2023-05-10T03:23:48;4.33;;;3.93;;
4794;SDS011;2411;47.060;15.064;2023-05-10T03:26:41;9.60;;;4.50;;
4794;SDS011;2411;47.060;15.064;2023-05-10T03:29:31;6.43;;;4.53;;
4794;SDS011;2411;47.060;15.064;2023-05-10T03:32:20;4.60;;;4.30;;
4794;SDS011;2411;47.060;15.064;2023-05-10T03:35:08;4.87;;;4.40;;
4794;SDS011;2411;47.060;15.064;2023-05-10T03:37:56;4.50;;;4.13;;
4794;SDS011;2411;47.060;15.064;2023-05-10T03:40:43;5.60;;;4.70;;
4794;SDS011;2411;47.060;15.064;2023-05-10T03:43:31;4.00;;;3.80;;
4794;SDS011;2411;47.060;15.064;2023-05-10T03:46:18;5.90;;;4.40;;
4794;SDS011;2411;47.060;15.064;2023-05-10T03:49:05;4.80;;;4.30;;
4794;SDS011;2411;47.060;15.064;2023-05-10T03:51:53;4.17;;;3.83;;
4794;SDS011;2411;47.060;15.064;2023-05-10T03:54:40;7.67;;;4.60;;
4794;SDS011;2411;47.060;15.064;2023-05-10T03:57:28;7.60;;;5.00;;
4794;SDS011;2411;47.060;15.064;2023-05-10T04:00:16;5.30;;;4.80;;
4794;SDS011;2411;47.060;15.064;2023-05-10T04:03:04;4.60;;;4.20;;
4794;SDS011;2411;47.060;15.064;2023-05-10T04:05:58;7.10;;;4.90;;
4794;SDS011;2411;47.060;15.064;2023-05-10T04:08:49;4.73;;;4.33;;
4794;SDS011;2411;47.060;15.064;2023-05-10T04:11:36;4.93;;;4.50;;
4794;SDS011;2411;47.060;15.064;2023-05-10T04:14:24;4.70;;;4.30;;
4794;SDS011;2411;47.060;15.064;2023-05-10T04:17:11;5.47;;;5.07;;
4794;SDS011;2411;47.060;15.064;2023-05-10T04:19:59;4.33;;;4.03;;
4794;SDS011;2411;47.060;15.064;2023-05-10T04:22:47;4.20;;;3.80;;
4794;SDS011;2411;47.060;15.064;2023-05-10T04:25:34;4.70;;;4.37;;
4794;SDS011;2411;47.060;15.064;2023-05-10T04:28:22;4.40;;;4.10;;
4794;SDS011;2411;47.060;15.064;2023-05-10T04:31:09;3.80;;;3.60;;
4794;SDS011;2411;47.060;15.064;2023-05-10T04:33:57;6.97;;;4.83;;
4794;SDS011;2411;47.060;15.064;2023-05-10T04:36:44;4.57;;;4.27;;
4794;SDS011;2411;47.060;15.064;2023-05-10T04:39:32;4.43;;;4.03;;
4794;SDS011;2411;47.060;15.064;2023-05-10T04:42:19;5.53;;;4.57;;
4794;SDS011;2411;47.060;15.064;2023-05-10T04:45:07;5.57;;;5.07;;
4794;SDS011;2411;47.060;15.064;2023-05-10T04:47:56;4.70;;;3.87;;
4794;SDS011;2411;47.060;15.064;2023-05-10T04:50:43;3.70;;;3.50;;
4794;SDS011;2411;47.060;15.064;2023-05-10T04:53:31;3.83;;;3.50;;
4794;SDS011;2411;47.060;15.064;2023-05-10T04:56:18;3.93;;;3.60;;
4794;SDS011;2411;47.060;15.064;2023-05-10T04:59:06;5.10;;;4.17;;
4794;SDS011;2411;47.060;15.064;2023-05-10T05:01:53;6.03;;;4.13;;
4794;SDS011;2411;47.060;15.064;2023-05-10T05:04:41;4.30;;;3.90;;
4794;SDS011;2411;47.060;15.064;2023-05-10T05:07:28;3.93;;;3.67;;
4794;SDS011;2411;47.060;15.064;2023-05-10T05:10:17;3.90;;;3.60;;
4794;SDS011;2411;47.060;15.064;2023-05-10T05:13:05;5.00;;;4.10;;
4794;SDS011;2411;47.060;15.064;2023-05-10T05:15:52;4.10;;;3.80;;
4794;SDS011;2411;47.060;15.064;2023-05-10T05:18:40;4.27;;;3.77;;
4794;SDS011;2411;47.060;15.064;2023-05-10T05:21:27;3.87;;;3.57;;
4794;SDS011;2411;47.060;15.064;2023-05-10T05:24:15;3.80;;;3.50;;
4794;SDS011;2411;47.060;15.064;2023-05-10T05:27:02;3.97;;;3.60;;
4794;SDS011;2411;47.060;15.064;2023-05-10T05:29:50;5.37;;;3.20;;
4794;SDS011;2411;47.060;15.064;2023-05-10T05:32:42;5.47;;;3.50;;
4794;SDS011;2411;47.060;15.064;2023-05-10T05:35:30;4.60;;;3.50;;
4794;SDS011;2411;47.060;15.064;2023-05-10T05:38:17;7.87;;;3.20;;
4794;SDS011;2411;47.060;15.064;2023-05-10T05:41:04;8.80;;;3.20;;
4794;SDS011;2411;47.060;15.064;2023-05-10T05:43:52;5.00;;;3.37;;
4794;SDS011;2411;47.060;15.064;2023-05-10T05:46:39;5.60;;;3.00;;
4794;SDS011;2411;47.060;15.064;2023-05-10T05:49:27;4.60;;;3.00;;
4794;SDS011;2411;47.060;15.064;2023-05-10T05:52:14;3.87;;;3.57;;
4794;SDS011;2411;47.060;15.064;2023-05-10T05:55:02;4.07;;;3.77;;
4794;SDS011;2411;47.060;15.064;2023-05-10T05:57:50;3.60;;;3.30;;
4794;SDS011;2411;47.060;15.064;2023-05-10T06:00:37;4.70;;;3.77;;
4794;SDS011;2411;47.060;15.064;2023-05-10T06:03:25;2.90;;;2.70;;
4794;SDS011;2411;47.060;15.064;2023-05-10T06:06:12;2.87;;;2.77;;
4794;SDS011;2411;47.060;15.064;2023-05-10T06:09:00;5.53;;;3.60;;
4794;SDS011;2411;47.060;15.064;2023-05-10T06:11:47;6.20;;;3.93;;
4794;SDS011;2411;47.060;15.064;2023-05-10T06:14:34;5.37;;;3.50;;
4794;SDS011;2411;47.060;15.064;2023-05-10T06:17:22;5.60;;;4.07;;
4794;SDS011;2411;47.060;15.064;2023-05-10T06:20:10;4.70;;;4.23;;
4794;SDS011;2411;47.060;15.064;2023-05-10T06:22:58;7.57;;;3.93;;
4794;SDS011;2411;47.060;15.064;2023-05-10T06:25:46;6.43;;;4.30;;
4794;SDS011;2411;47.060;15.064;2023-05-10T06:28:33;6.40;;;4.50;;
4794;SDS011;2411;47.060;15.064;2023-05-10T06:31:20;7.20;;;4.07;;
4794;SDS011;2411;47.060;15.064;2023-05-10T06:34:08;4.10;;;3.70;;
4794;SDS011;2411;47.060;15.064;2023-05-10T06:36:55;5.30;;;4.10;;
4794;SDS011;2411;47.060;15.064;2023-05-10T06:39:43;3.97;;;3.37;;
4794;SDS011;2411;47.060;15.064;2023-05-10T06:42:31;4.83;;;3.63;;
4794;SDS011;2411;47.060;15.064;2023-05-10T06:45:19;4.53;;;3.43;;
4794;SDS011;2411;47.060;15.064;2023-05-10T06:48:07;4.20;;;3.90;;
4794;SDS011;2411;47.060;15.064;2023-05-10T06:50:54;4.53;;;4.13;;
4794;SDS011;2411;47.060;15.064;2023-05-10T06:53:41;10.50;;;3.93;;
4794;SDS011;2411;47.060;15.064;2023-05-10T06:56:29;4.60;;;4.20;;
4794;SDS011;2411;47.060;15.064;2023-05-10T06:59:16;4.87;;;3.50;;
4794;SDS011;2411;47.060;15.064;2023-05-10T07:02:06;8.63;;;4.00;;
4794;SDS011;2411;47.060;15.064;2023-05-10T07:04:53;4.50;;;4.03;;
4794;SDS011;2411;47.060;15.064;2023-05-10T07:07:41;4.20;;;3.80;;
4794;SDS011;2411;47.060;15.064;2023-05-10T07:10:28;4.03;;;3.73;;
4794;SDS011;2411;47.060;15.064;2023-05-10T07:13:16;3.73;;;3.43;;
4794;SDS011;2411;47.060;15.064;2023-05-10T07:16:04;4.37;;;3.40;;
4794;SDS011;2411;47.060;15.064;2023-05-10T07:18:53;3.80;;;3.50;;
4794;SDS011;2411;47.060;15.064;2023-05-10T07:21:40;3.70;;;3.23;;
4794;SDS011;2411;47.060;15.064;2023-05-10T07:24:29;3.73;;;3.47;;
4794;SDS011;2411;47.060;15.064;2023-05-10T07:27:18;4.87;;;3.50;;
4794;SDS011;2411;47.060;15.064;2023-05-10T07:30:05;3.60;;;3.30;;
4794;SDS011;2411;47.060;15.064;2023-05-10T07:32:53;2.90;;;2.70;;
4794;SDS011;2411;47.060;15.064;2023-05-10T07:35:42;3.90;;;3.60;;
4794;SDS011;2411;47.060;15.064;2023-05-10T07:38:29;4.00;;;3.17;;
4794;SDS011;2411;47.060;15.064;2023-05-10T07:41:17;4.17;;;3.20;;
4794;SDS011;2411;47.060;15.064;2023-05-10T07:44:05;5.03;;;3.43;;
4794;SDS011;2411;47.060;15.064;2023-05-10T07:46:53;5.80;;;2.93;;
4794;SDS011;2411;47.060;15.064;2023-05-10T07:49:40;2.87;;;2.47;;
4794;SDS011;2411;47.060;15.064;2023-05-10T07:52:27;3.30;;;3.03;;
4794;SDS011;2411;47.060;15.064;2023-05-10T07:55:15;3.33;;;3.03;;
4794;SDS011;2411;47.060;15.064;2023-05-10T07:58:02;4.07;;;3.70;;
4794;SDS011;2411;47.060;15.064;2023-05-10T08:00:50;3.37;;;3.17;;
4794;SDS011;2411;47.060;15.064;2023-05-10T08:03:38;5.73;;;3.30;;
4794;SDS011;2411;47.060;15.064;2023-05-10T08:06:25;4.33;;;3.10;;
4794;SDS011;2411;47.060;15.064;2023-05-10T08:09:14;3.20;;;2.90;;
4794;SDS011;2411;47.060;15.064;2023-05-10T08:12:02;3.73;;;2.60;;
4794;SDS011;2411;47.060;15.064;2023-05-10T08:14:50;2.90;;;2.60;;
4794;SDS011;2411;47.060;15.064;2023-05-10T08:17:37;7.27;;;3.23;;
4794;SDS011;2411;47.060;15.064;2023-05-10T08:20:25;4.03;;;2.60;;
4794;SDS011;2411;47.060;15.064;2023-05-10T08:23:12;3.43;;;2.97;;
4794;SDS011;2411;47.060;15.064;2023-05-10T08:26:00;6.70;;;3.40;;
4794;SDS011;2411;47.060;15.064;2023-05-10T08:28:47;5.13;;;3.27;;
4794;SDS011;2411;47.060;15.064;2023-05-10T08:31:35;3.90;;;3.50;;
4794;SDS011;2411;47.060;15.064;2023-05-10T08:34:22;4.87;;;3.33;;
4794;SDS011;2411;47.060;15.064;2023-05-10T08:37:10;3.10;;;2.90;;
4794;SDS011;2411;47.060;15.064;2023-05-10T08:40:00;3.17;;;2.83;;
4794;SDS011;2411;47.060;15.064;2023-05-10T08:42:50;5.27;;;3.30;;
4794;SDS011;2411;47.060;15.064;2023-05-10T08:45:55;4.83;;;3.50;;
4794;SDS011;2411;47.060;15.064;2023-05-10T08:48:46;5.40;;;4.00;;
4794;SDS011;2411;47.060;15.064;2023-05-10T08:51:35;3.77;;;3.47;;
4794;SDS011;2411;47.060;15.064;2023-05-10T08:54:27;3.17;;;2.87;;
4794;SDS011;2411;47.060;15.064;2023-05-10T08:57:14;4.03;;;2.90;;
4794;SDS011;2411;47.060;15.064;2023-05-10T09:00:02;3.67;;;3.37;;
4794;SDS011;2411;47.060;15.064;2023-05-10T09:02:50;3.50;;;3.00;;
4794;SDS011;2411;47.060;15.064;2023-05-10T09:05:37;3.60;;;3.10;;
4794;SDS011;2411;47.060;15.064;2023-05-10T09:08:25;5.80;;;3.40;;
4794;SDS011;2411;47.060;15.064;2023-05-10T09:11:13;5.13;;;3.50;;
4794;SDS011;2411;47.060;15.064;2023-05-10T09:14:01;3.70;;;3.40;;
4794;SDS011;2411;47.060;15.064;2023-05-10T09:16:49;3.77;;;3.40;;
4794;SDS011;2411;47.060;15.064;2023-05-10T09:19:36;4.10;;;3.70;;
4794;SDS011;2411;47.060;15.064;2023-05-10T09:22:24;7.50;;;3.63;;
4794;SDS011;2411;47.060;15.064;2023-05-10T09:25:12;4.20;;;3.80;;
4794;SDS011;2411;47.060;15.064;2023-05-10T09:28:02;3.00;;;2.67;;
4794;SDS011;2411;47.060;15.064;2023-05-10T09:30:54;6.40;;;3.27;;
4794;SDS011;2411;47.060;15.064;2023-05-10T09:33:45;4.83;;;3.30;;
4794;SDS011;2411;47.060;15.064;2023-05-10T09:36:34;3.13;;;2.83;;
4794;SDS011;2411;47.060;15.064;2023-05-10T09:39:31;3.17;;;2.83;;
4794;SDS011;2411;47.060;15.064;2023-05-10T09:42:20;4.07;;;2.87;;
4794;SDS011;2411;47.060;15.064;2023-05-10T09:45:07;3.63;;;3.43;;
4794;SDS011;2411;47.060;15.064;2023-05-10T09:47:55;2.97;;;2.77;;
4794;SDS011;2411;47.060;15.064;2023-05-10T09:50:44;4.40;;;3.67;;
4794;SDS011;2411;47.060;15.064;2023-05-10T09:53:31;3.30;;;2.53;;
4794;SDS011;2411;47.060;15.064;2023-05-10T09:56:37;2.90;;;2.70;;
4794;SDS011;2411;47.060;15.064;2023-05-10T09:59:27;3.73;;;2.70;;
4794;SDS011;2411;47.060;15.064;2023-05-10T10:02:16;3.30;;;3.00;;
4794;SDS011;2411;47.060;15.064;2023-05-10T10:05:03;3.13;;;2.83;;
4794;SDS011;2411;47.060;15.064;2023-05-10T10:07:53;3.10;;;2.67;;
4794;SDS011;2411;47.060;15.064;2023-05-10T10:10:43;2.80;;;2.60;;
4794;SDS011;2411;47.060;15.064;2023-05-10T10:13:32;3.80;;;3.10;;
4794;SDS011;2411;47.060;15.064;2023-05-10T10:16:20;2.90;;;2.70;;
4794;SDS011;2411;47.060;15.064;2023-05-10T10:19:08;3.23;;;2.67;;
4794;SDS011;2411;47.060;15.064;2023-05-10T10:21:55;3.10;;;2.90;;
4794;SDS011;2411;47.060;15.064;2023-05-10T10:24:43;3.20;;;2.90;;
4794;SDS011;2411;47.060;15.064;2023-05-10T10:30:43;4.37;;;3.07;;
4794;SDS011;2411;47.060;15.064;2023-05-10T10:36:26;3.60;;;2.70;;
4794;SDS011;2411;47.060;15.064;2023-05-10T10:39:14;5.20;;;3.63;;
4794;SDS011;2411;47.060;15.064;2023-05-10T10:42:02;2.77;;;2.57;;
4794;SDS011;2411;47.060;15.064;2023-05-10T10:45:00;2.63;;;2.43;;
4794;SDS011;2411;47.060;15.064;2023-05-10T10:48:32;2.53;;;2.33;;
4794;SDS011;2411;47.060;15.064;2023-05-10T10:51:12;3.27;;;2.90;;
4794;SDS011;2411;47.060;15.064;2023-05-10T10:54:08;4.33;;;2.40;;
4794;SDS011;2411;47.060;15.064;2023-05-10T10:57:12;4.30;;;2.20;;
4794;SDS011;2411;47.060;15.064;2023-05-10T11:03:11;4.27;;;3.03;;
4794;SDS011;2411;47.060;15.064;2023-05-10T11:06:05;2.80;;;2.60;;
4794;SDS011;2411;47.060;15.064;2023-05-10T11:08:54;7.27;;;2.73;;
4794;SDS011;2411;47.060;15.064;2023-05-10T11:11:48;2.70;;;2.50;;
4794;SDS011;2411;47.060;15.064;2023-05-10T11:14:42;3.20;;;2.33;;
4794;SDS011;2411;47.060;15.064;2023-05-10T11:17:29;2.60;;;2.40;;
4794;SDS011;2411;47.060;15.064;2023-05-10T11:20:18;2.93;;;2.53;;
4794;SDS011;2411;47.060;15.064;2023-05-10T11:23:15;3.80;;;2.53;;
4794;SDS011;2411;47.060;15.064;2023-05-10T11:26:06;3.70;;;2.30;;
4794;SDS011;2411;47.060;15.064;2023-05-10T11:28:58;2.57;;;2.40;;
4794;SDS011;2411;47.060;15.064;2023-05-10T11:31:52;3.90;;;2.40;;
4794;SDS011;2411;47.060;15.064;2023-05-10T11:34:46;2.60;;;2.40;;
4794;SDS011;2411;47.060;15.064;2023-05-10T11:37:38;1.87;;;1.77;;
4794;SDS011;2411;47.060;15.064;2023-05-10T11:40:27;1.63;;;1.53;;
4794;SDS011;2411;47.060;15.064;2023-05-10T11:43:15;1.73;;;1.63;;
4794;SDS011;2411;47.060;15.064;2023-05-10T11:46:05;2.00;;;1.80;;
4794;SDS011;2411;47.060;15.064;2023-05-10T11:48:58;1.70;;;1.60;;
4794;SDS011;2411;47.060;15.064;2023-05-10T11:52:07;1.50;;;1.40;;
4794;SDS011;2411;47.060;15.064;2023-05-10T11:54:55;4.07;;;1.80;;
4794;SDS011;2411;47.060;15.064;2023-05-10T11:57:42;1.63;;;1.33;;
4794;SDS011;2411;47.060;15.064;2023-05-10T12:00:32;2.00;;;1.80;;
4794;SDS011;2411;47.060;15.064;2023-05-10T12:03:20;1.80;;;1.70;;
4794;SDS011;2411;47.060;15.064;2023-05-10T12:06:07;1.43;;;1.33;;
4794;SDS011;2411;47.060;15.064;2023-05-10T12:08:55;1.90;;;1.80;;
4794;SDS011;2411;47.060;15.064;2023-05-10T12:11:42;1.60;;;1.50;;
4794;SDS011;2411;47.060;15.064;2023-05-10T12:14:33;1.70;;;1.60;;
4794;SDS011;2411;47.060;15.064;2023-05-10T12:17:21;3.20;;;1.50;;
4794;SDS011;2411;47.060;15.064;2023-05-10T12:20:14;1.97;;;1.87;;
4794;SDS011;2411;47.060;15.064;2023-05-10T12:23:09;2.03;;;1.93;;
4794;SDS011;2411;47.060;15.064;2023-05-10T12:26:01;4.10;;;1.60;;
4794;SDS011;2411;47.060;15.064;2023-05-10T12:28:53;2.83;;;1.87;;
4794;SDS011;2411;47.060;15.064;2023-05-10T12:34:41;4.70;;;1.73;;
4794;SDS011;2411;47.060;15.064;2023-05-10T12:37:29;2.10;;;1.73;;
4794;SDS011;2411;47.060;15.064;2023-05-10T12:40:17;1.60;;;1.50;;
4794;SDS011;2411;47.060;15.064;2023-05-10T12:43:04;8.73;;;1.53;;
4794;SDS011;2411;47.060;15.064;2023-05-10T12:45:52;3.40;;;1.83;;
4794;SDS011;2411;47.060;15.064;2023-05-10T12:48:40;1.50;;;1.40;;
4794;SDS011;2411;47.060;15.064;2023-05-10T12:51:29;1.53;;;1.43;;
4794;SDS011;2411;47.060;15.064;2023-05-10T12:54:17;2.00;;;1.40;;
4794;SDS011;2411;47.060;15.064;2023-05-10T12:57:04;1.60;;;1.50;;
4794;SDS011;2411;47.060;15.064;2023-05-10T12:59:52;1.60;;;1.50;;
4794;SDS011;2411;47.060;15.064;2023-05-10T13:02:39;1.50;;;1.40;;
4794;SDS011;2411;47.060;15.064;2023-05-10T13:05:27;1.53;;;1.43;;
4794;SDS011;2411;47.060;15.064;2023-05-10T13:08:14;1.70;;;1.60;;
4794;SDS011;2411;47.060;15.064;2023-05-10T13:11:02;1.80;;;1.70;;
4794;SDS011;2411;47.060;15.064;2023-05-10T13:13:49;1.83;;;1.73;;
4794;SDS011;2411;47.060;15.064;2023-05-10T13:16:37;1.33;;;1.23;;
4794;SDS011;2411;47.060;15.064;2023-05-10T13:19:25;4.70;;;1.70;;
4794;SDS011;2411;47.060;15.064;2023-05-10T13:22:12;4.00;;;1.50;;
4794;SDS011;2411;47.060;15.064;2023-05-10T13:25:04;1.63;;;1.37;;
4794;SDS011;2411;47.060;15.064;2023-05-10T13:27:52;1.30;;;1.20;;
4794;SDS011;2411;47.060;15.064;2023-05-10T13:30:39;1.50;;;1.40;;
4794;SDS011;2411;47.060;15.064;2023-05-10T13:33:26;1.80;;;1.70;;
4794;SDS011;2411;47.060;15.064;2023-05-10T13:36:14;1.90;;;1.70;;
4794;SDS011;2411;47.060;15.064;2023-05-10T13:39:01;1.63;;;1.53;;
4794;SDS011;2411;47.060;15.064;2023-05-10T13:41:50;3.83;;;1.87;;
4794;SDS011;2411;47.060;15.064;2023-05-10T13:44:39;1.87;;;1.77;;
4794;SDS011;2411;47.060;15.064;2023-05-10T13:47:27;3.70;;;1.93;;
4794;SDS011;2411;47.060;15.064;2023-05-10T13:50:14;3.83;;;2.10;;
4794;SDS011;2411;47.060;15.064;2023-05-10T13:53:02;4.63;;;2.37;;
4794;SDS011;2411;47.060;15.064;2023-05-10T13:55:49;2.30;;;2.10;;
4794;SDS011;2411;47.060;15.064;2023-05-10T13:58:37;5.77;;;2.50;;
4794;SDS011;2411;47.060;15.064;2023-05-10T14:05:06;7.30;;;2.00;;
4794;SDS011;2411;47.060;15.064;2023-05-10T14:07:33;2.60;;;2.40;;
4794;SDS011;2411;47.060;15.064;2023-05-10T14:10:00;6.83;;;2.40;;
4794;SDS011;2411;47.060;15.064;2023-05-10T14:12:28;4.20;;;2.83;;
4794;SDS011;2411;47.060;15.064;2023-05-10T14:14:55;2.63;;;2.43;;
4794;SDS011;2411;47.060;15.064;2023-05-10T14:17:23;4.40;;;2.83;;
4794;SDS011;2411;47.060;15.064;2023-05-10T14:19:50;2.93;;;2.73;;
4794;SDS011;2411;47.060;15.064;2023-05-10T14:22:17;3.80;;;3.37;;
4794;SDS011;2411;47.060;15.064;2023-05-10T14:24:44;4.80;;;2.73;;
4794;SDS011;2411;47.060;15.064;2023-05-10T14:27:13;5.90;;;3.23;;
4794;SDS011;2411;47.060;15.064;2023-05-10T14:29:41;5.17;;;3.50;;
4794;SDS011;2411;47.060;15.064;2023-05-10T14:32:08;4.63;;;3.23;;
4794;SDS011;2411;47.060;15.064;2023-05-10T14:34:36;4.17;;;3.87;;
4794;SDS011;2411;47.060;15.064;2023-05-10T14:37:03;4.80;;;3.90;;
4794;SDS011;2411;47.060;15.064;2023-05-10T14:39:30;4.47;;;3.80;;
4794;SDS011;2411;47.060;15.064;2023-05-10T14:41:58;5.70;;;3.97;;
4794;SDS011;2411;47.060;15.064;2023-05-10T14:44:25;5.50;;;3.77;;
4794;SDS011;2411;47.060;15.064;2023-05-10T14:46:52;6.30;;;3.57;;
4794;SDS011;2411;47.060;15.064;2023-05-10T14:49:19;3.73;;;3.43;;
4794;SDS011;2411;47.060;15.064;2023-05-10T14:51:49;3.50;;;3.20;;
4794;SDS011;2411;47.060;15.064;2023-05-10T14:54:16;3.27;;;3.07;;
4794;SDS011;2411;47.060;15.064;2023-05-10T14:56:43;3.80;;;3.47;;
4794;SDS011;2411;47.060;15.064;2023-05-10T14:59:11;4.30;;;3.63;;
4794;SDS011;2411;47.060;15.064;2023-05-10T15:01:39;4.60;;;3.70;;
4794;SDS011;2411;47.060;15.064;2023-05-10T15:04:08;5.07;;;3.30;;
4794;SDS011;2411;47.060;15.064;2023-05-10T15:06:36;3.47;;;3.17;;
4794;SDS011;2411;47.060;15.064;2023-05-10T15:09:03;4.60;;;3.20;;
4794;SDS011;2411;47.060;15.064;2023-05-10T15:11:30;3.47;;;3.17;;
4794;SDS011;2411;47.060;15.064;2023-05-10T15:13:57;4.57;;;3.53;;
4794;SDS011;2411;47.060;15.064;2023-05-10T15:16:25;3.40;;;3.20;;
4794;SDS011;2411;47.060;15.064;2023-05-10T15:18:52;3.63;;;3.33;;
4794;SDS011;2411;47.060;15.064;2023-05-10T15:21:19;3.97;;;3.60;;
4794;SDS011;2411;47.060;15.064;2023-05-10T15:23:47;4.53;;;3.50;;
4794;SDS011;2411;47.060;15.064;2023-05-10T15:26:14;3.50;;;3.20;;
4794;SDS011;2411;47.060;15.064;2023-05-10T15:28:42;3.90;;;3.50;;
4794;SDS011;2411;47.060;15.064;2023-05-10T15:31:09;3.40;;;3.20;;
4794;SDS011;2411;47.060;15.064;2023-05-10T15:33:37;3.83;;;3.53;;
4794;SDS011;2411;47.060;15.064;2023-05-10T15:36:04;3.77;;;3.47;;
4794;SDS011;2411;47.060;15.064;2023-05-10T15:38:33;4.00;;;3.70;;
4794;SDS011;2411;47.060;15.064;2023-05-10T15:41:00;4.27;;;3.87;;
4794;SDS011;2411;47.060;15.064;2023-05-10T15:43:27;3.83;;;3.10;;
4794;SDS011;2411;47.060;15.064;2023-05-10T15:45:54;3.50;;;3.10;;
4794;SDS011;2411;47.060;15.064;2023-05-10T15:48:22;3.90;;;3.60;;
4794;SDS011;2411;47.060;15.064;2023-05-10T15:50:49;4.53;;;3.30;;
4794;SDS011;2411;47.060;15.064;2023-05-10T15:53:16;5.73;;;4.10;;
4794;SDS011;2411;47.060;15.064;2023-05-10T15:55:43;4.20;;;3.90;;
4794;SDS011;2411;47.060;15.064;2023-05-10T15:58:10;4.60;;;4.20;;
4794;SDS011;2411;47.060;15.064;2023-05-10T16:00:37;4.03;;;3.63;;
4794;SDS011;2411;47.060;15.064;2023-05-10T16:03:04;4.27;;;3.20;;
4794;SDS011;2411;47.060;15.064;2023-05-10T16:05:32;4.40;;;3.20;;
4794;SDS011;2411;47.060;15.064;2023-05-10T16:07:59;3.70;;;3.40;;
4794;SDS011;2411;47.060;15.064;2023-05-10T16:10:27;5.97;;;4.13;;
4794;SDS011;2411;47.060;15.064;2023-05-10T16:12:58;4.03;;;3.67;;
4794;SDS011;2411;47.060;15.064;2023-05-10T16:15:26;6.17;;;4.53;;
4794;SDS011;2411;47.060;15.064;2023-05-10T16:17:53;5.30;;;4.90;;
4794;SDS011;2411;47.060;15.064;2023-05-10T16:20:20;5.23;;;4.37;;
4794;SDS011;2411;47.060;15.064;2023-05-10T16:22:47;5.37;;;4.83;;
4794;SDS011;2411;47.060;15.064;2023-05-10T16:25:15;4.87;;;4.50;;
4794;SDS011;2411;47.060;15.064;2023-05-10T16:27:42;5.93;;;5.47;;
4794;SDS011;2411;47.060;15.064;2023-05-10T16:30:10;7.53;;;6.73;;
4794;SDS011;2411;47.060;15.064;2023-05-10T16:32:38;7.57;;;6.00;;
4794;SDS011;2411;47.060;15.064;2023-05-10T16:35:05;4.27;;;3.97;;
4794;SDS011;2411;47.060;15.064;2023-05-10T16:37:33;4.83;;;4.20;;
4794;SDS011;2411;47.060;15.064;2023-05-10T16:40:00;3.87;;;3.57;;
4794;SDS011;2411;47.060;15.064;2023-05-10T16:42:27;6.17;;;4.57;;
4794;SDS011;2411;47.060;15.064;2023-05-10T16:44:54;3.97;;;3.67;;
4794;SDS011;2411;47.060;15.064;2023-05-10T16:47:22;10.10;;;4.23;;
4794;SDS011;2411;47.060;15.064;2023-05-10T16:49:52;12.43;;;4.03;;
4794;SDS011;2411;47.060;15.064;2023-05-10T16:52:19;4.60;;;4.30;;
4794;SDS011;2411;47.060;15.064;2023-05-10T16:54:46;4.57;;;4.17;;
4794;SDS011;2411;47.060;15.064;2023-05-10T16:57:13;3.77;;;3.47;;
4794;SDS011;2411;47.060;15.064;2023-05-10T16:59:40;3.70;;;3.10;;
4794;SDS011;2411;47.060;15.064;2023-05-10T17:02:10;11.53;;;4.10;;
4794;SDS011;2411;47.060;15.064;2023-05-10T17:04:39;5.13;;;3.83;;
4794;SDS011;2411;47.060;15.064;2023-05-10T17:07:08;4.03;;;3.73;;
4794;SDS011;2411;47.060;15.064;2023-05-10T17:09:35;4.53;;;4.13;;
4794;SDS011;2411;47.060;15.064;2023-05-10T17:12:05;4.07;;;3.73;;
4794;SDS011;2411;47.060;15.064;2023-05-10T17:14:32;4.30;;;3.90;;
4794;SDS011;2411;47.060;15.064;2023-05-10T17:17:00;4.10;;;3.73;;
4794;SDS011;2411;47.060;15.064;2023-05-10T17:19:27;4.50;;;4.07;;